createdAt,value
2022-11-16T00:03:54.333Z,16.11
2022-11-16T00:09:37.541Z,16.1
2022-11-16T00:15:20.394Z,16.07
2022-11-16T00:21:05.063Z,16.08
2022-11-16T00:26:48.290Z,16.08
2022-11-16T00:32:31.021Z,16.05
2022-11-16T00:38:15.307Z,16.04
2022-11-16T00:43:58.037Z,16.03
2022-11-16T00:49:41.102Z,16.04
2022-11-16T00:55:24.169Z,16.03
2022-11-16T01:01:08.547Z,16
2022-11-16T01:06:51.930Z,16.01
2022-11-16T01:12:35.521Z,16.01
2022-11-16T01:18:18.277Z,16.01
2022-11-16T01:24:01.249Z,16.02
2022-11-16T01:29:44.119Z,16
2022-11-16T01:35:27.016Z,15.97
2022-11-16T01:41:12.624Z,15.96
2022-11-16T01:46:55.542Z,15.94
2022-11-16T01:52:40.365Z,15.93
2022-11-16T01:58:24.742Z,15.9
2022-11-16T02:04:09.797Z,15.89
2022-11-16T02:10:06.693Z,15.9
2022-11-16T02:15:55.094Z,15.93
2022-11-16T02:21:41.201Z,15.9
2022-11-16T02:27:38.158Z,15.86
2022-11-16T02:33:23.238Z,15.86
2022-11-16T02:39:08.848Z,15.83
2022-11-16T02:44:52.668Z,15.79
2022-11-16T02:50:37.741Z,15.77
2022-11-16T02:56:20.890Z,15.76
2022-11-16T03:02:09.129Z,15.7
2022-11-16T03:07:57.951Z,15.71
2022-11-16T03:13:43.246Z,15.7
2022-11-16T03:19:29.166Z,15.68
2022-11-16T03:25:13.715Z,15.66
2022-11-16T03:30:58.615Z,15.63
2022-11-16T03:36:43.091Z,15.6
2022-11-16T03:42:26.309Z,15.56
2022-11-16T03:48:09.901Z,15.53
2022-11-16T03:53:53.026Z,15.5
2022-11-16T03:59:36.181Z,15.46
2022-11-16T04:05:19.104Z,15.4
2022-11-16T04:11:03.187Z,15.36
2022-11-16T04:16:47.157Z,15.32
2022-11-16T04:22:31.968Z,15.29
2022-11-16T04:28:16.137Z,15.25
2022-11-16T04:33:58.916Z,15.2
2022-11-16T04:39:41.827Z,15.18
2022-11-16T04:45:25.591Z,15.12
2022-11-16T04:51:08.551Z,15.1
2022-11-16T04:56:51.562Z,15.04
2022-11-16T05:02:34.674Z,15
2022-11-16T05:08:17.709Z,14.96
2022-11-16T05:14:00.801Z,14.93
2022-11-16T05:19:44.162Z,14.91
2022-11-16T05:25:32.609Z,14.89
2022-11-16T05:31:19.336Z,14.89
2022-11-16T05:37:02.373Z,14.88
2022-11-16T05:42:45.231Z,14.87
2022-11-16T05:48:28.147Z,14.83
2022-11-16T05:54:11.591Z,14.85
2022-11-16T05:59:54.461Z,14.84
2022-11-16T06:05:40.594Z,14.84
2022-11-16T06:11:23.876Z,14.85
2022-11-16T06:17:11.448Z,14.86
2022-11-16T06:22:54.228Z,14.89
2022-11-16T06:28:37.526Z,14.86
2022-11-16T06:34:20.582Z,14.84
2022-11-16T06:40:04.643Z,14.82
2022-11-16T06:45:47.766Z,14.83
2022-11-16T06:51:31.701Z,14.87
2022-11-16T06:57:14.822Z,14.86
2022-11-16T07:02:57.853Z,14.85
2022-11-16T07:08:40.696Z,14.87
2022-11-16T07:14:23.421Z,14.85
2022-11-16T07:20:06.801Z,14.84
2022-11-16T07:25:49.476Z,14.81
2022-11-16T07:31:32.389Z,14.86
2022-11-16T07:37:14.999Z,14.89
2022-11-16T07:43:00.757Z,14.88
2022-11-16T07:48:43.791Z,14.96
2022-11-16T07:54:27.891Z,14.96
2022-11-16T08:00:11.736Z,14.95
2022-11-16T08:05:57.637Z,14.98
2022-11-16T08:11:40.719Z,15.01
2022-11-16T08:17:24.538Z,15.04
2022-11-16T08:23:07.633Z,15.08
2022-11-16T08:28:50.878Z,15.18
2022-11-16T08:34:33.939Z,15.24
2022-11-16T08:40:17.333Z,15.31
2022-11-16T08:46:01.162Z,15.4
2022-11-16T08:51:44.138Z,15.55
2022-11-16T08:57:27.127Z,15.64
2022-11-16T09:03:10.777Z,15.73
2022-11-16T09:08:53.700Z,15.85
2022-11-16T09:14:36.537Z,15.96
2022-11-16T09:20:19.632Z,16.07
2022-11-16T09:26:05.048Z,16.06
2022-11-16T09:31:48.148Z,16.19
2022-11-16T09:37:31.066Z,16.21
2022-11-16T09:43:19.311Z,16.23
2022-11-16T09:49:10.504Z,16.39
2022-11-16T09:55:02.158Z,16.64
2022-11-16T10:00:49.324Z,16.7
2022-11-16T10:06:38.012Z,16.71
2022-11-16T10:12:24.402Z,16.79
2022-11-16T10:18:15.073Z,16.81
2022-11-16T10:24:05.766Z,16.91
2022-11-16T10:29:56.620Z,16.92
2022-11-16T10:35:42.558Z,17
2022-11-16T10:41:28.874Z,17.02
2022-11-16T10:47:16.849Z,17.08
2022-11-16T10:53:00.192Z,17.33
2022-11-16T10:58:53.419Z,17.59
2022-11-16T11:04:36.260Z,17.72
2022-11-16T11:10:27.826Z,17.74
2022-11-16T11:16:18.827Z,17.68
2022-11-16T11:22:03.183Z,17.57
2022-11-16T11:27:46.220Z,17.75
2022-11-16T11:33:30.660Z,17.67
2022-11-16T11:39:28.681Z,17.62
2022-11-16T11:45:12.811Z,17.56
2022-11-16T11:51:00.721Z,17.57
2022-11-16T11:56:43.648Z,17.56
2022-11-16T12:02:34.757Z,17.62
2022-11-16T12:08:24.759Z,17.56
2022-11-16T12:14:13.571Z,17.51
2022-11-16T12:20:11.662Z,17.58
2022-11-16T12:25:59.413Z,17.71
2022-11-16T12:31:50.452Z,17.86
2022-11-16T12:37:37.352Z,17.88
2022-11-16T12:43:22.597Z,17.76
2022-11-16T12:49:18.073Z,17.76
2022-11-16T12:55:26.615Z,17.9
2022-11-16T13:01:16.800Z,18.03
2022-11-16T13:07:06.541Z,18.14
2022-11-16T13:13:15.342Z,18.1
2022-11-16T13:19:00.584Z,18.2
2022-11-16T13:24:51.668Z,18.09
2022-11-16T13:30:41.023Z,17.99
2022-11-16T13:36:35.506Z,18.07
2022-11-16T13:42:18.377Z,18.07
2022-11-16T13:48:03.063Z,18.17
2022-11-16T13:54:42.937Z,18.01
2022-11-16T13:59:56.019Z,17.95
2022-11-16T14:05:42.989Z,17.85
2022-11-16T14:11:31.983Z,17.74
2022-11-16T14:17:19.832Z,17.68
2022-11-16T14:23:11.957Z,17.61
2022-11-16T14:29:02.868Z,17.54
2022-11-16T14:34:47.234Z,17.47
2022-11-16T14:40:32.260Z,17.42
2022-11-16T14:46:20.757Z,17.36
2022-11-16T14:52:04.736Z,17.41
2022-11-16T14:57:56.212Z,17.37
2022-11-16T15:03:40.974Z,17.35
2022-11-16T15:09:26.846Z,17.29
2022-11-16T15:15:13.433Z,17.24
2022-11-16T15:20:56.337Z,17.21
2022-11-16T15:26:39.677Z,17.15
2022-11-16T15:32:22.623Z,17.03
2022-11-16T15:38:11.733Z,16.97
2022-11-16T15:44:14.416Z,16.87
2022-11-16T15:49:56.836Z,16.86
2022-11-16T15:55:40.591Z,16.76
2022-11-16T16:01:24.476Z,16.69
2022-11-16T16:07:08.035Z,16.64
2022-11-16T16:12:51.383Z,16.55
2022-11-16T16:18:34.182Z,16.49
2022-11-16T16:24:28.000Z,16.43
2022-11-16T16:30:13.073Z,16.41
2022-11-16T16:35:56.140Z,16.4
2022-11-16T16:41:39.894Z,16.34
2022-11-16T16:47:22.785Z,16.31
2022-11-16T16:53:05.729Z,16.26
2022-11-16T16:58:48.747Z,16.2
2022-11-16T17:04:32.546Z,16.16
2022-11-16T17:10:15.640Z,16.16
2022-11-16T17:15:58.709Z,16.12
2022-11-16T17:21:41.886Z,16.09
2022-11-16T17:27:24.931Z,16.04
2022-11-16T17:33:07.981Z,15.99
2022-11-16T17:38:50.806Z,15.95
2022-11-16T17:44:33.528Z,15.93
2022-11-16T17:50:16.666Z,15.93
2022-11-16T17:55:59.520Z,15.92
2022-11-16T18:01:42.449Z,15.9
2022-11-16T18:07:25.840Z,15.86
2022-11-16T18:13:09.264Z,15.84
2022-11-16T18:18:56.256Z,15.83
2022-11-16T18:24:40.146Z,15.8
2022-11-16T18:30:23.696Z,15.77
2022-11-16T18:36:08.133Z,15.76
2022-11-16T18:41:54.693Z,15.75
2022-11-16T18:47:38.802Z,15.76
2022-11-16T18:53:21.777Z,15.73
2022-11-16T18:59:05.005Z,15.71
2022-11-16T19:04:48.188Z,15.69
2022-11-16T19:10:35.224Z,15.68
2022-11-16T19:16:18.159Z,15.69
2022-11-16T19:22:01.042Z,15.69
2022-11-16T19:27:44.038Z,15.66
2022-11-16T19:33:27.209Z,15.65
2022-11-16T19:39:10.276Z,15.64
2022-11-16T19:44:53.183Z,15.64
2022-11-16T19:50:36.206Z,15.67
2022-11-16T19:56:20.271Z,15.66
2022-11-16T20:02:05.656Z,15.69
2022-11-16T20:07:48.901Z,15.7
2022-11-16T20:13:31.923Z,15.7
2022-11-16T20:19:15.984Z,15.7
2022-11-16T20:24:58.933Z,15.72
2022-11-16T20:30:44.606Z,15.71
2022-11-16T20:36:28.290Z,15.69
2022-11-16T20:42:12.064Z,15.68
2022-11-16T20:47:58.701Z,15.69
2022-11-16T20:53:44.567Z,15.7
2022-11-16T20:59:30.028Z,15.69
2022-11-16T21:05:14.524Z,15.69
2022-11-16T21:10:58.592Z,15.68
2022-11-16T21:16:43.720Z,15.68
2022-11-16T21:22:32.241Z,15.68
2022-11-16T21:28:22.751Z,15.68
2022-11-16T21:34:09.275Z,15.68
2022-11-16T21:39:53.666Z,15.68
2022-11-16T21:45:37.793Z,15.67
2022-11-16T21:51:23.547Z,15.76
2022-11-16T21:57:09.871Z,15.74
2022-11-16T22:02:54.243Z,15.72
2022-11-16T22:08:38.073Z,15.71
2022-11-16T22:14:21.178Z,15.71
2022-11-16T22:20:06.257Z,15.71
2022-11-16T22:25:49.184Z,15.71
2022-11-16T22:31:33.051Z,15.7
2022-11-16T22:37:16.109Z,15.7
2022-11-16T22:42:59.961Z,15.71
2022-11-16T22:48:42.823Z,15.72
2022-11-16T22:54:28.568Z,15.73
2022-11-16T23:00:12.779Z,15.73
2022-11-16T23:05:55.731Z,15.74
2022-11-16T23:11:38.737Z,15.75
2022-11-16T23:17:21.833Z,15.74
2022-11-16T23:23:12.453Z,15.74
2022-11-16T23:28:56.652Z,15.76
2022-11-16T23:34:39.596Z,15.75
2022-11-16T23:40:23.696Z,15.74
2022-11-16T23:46:06.774Z,15.74
2022-11-16T23:51:49.790Z,15.76
2022-11-16T23:57:32.719Z,15.75
